WetterOnline ( https://www.wetteronline.de )

Wetter aktuell Oldenburg

Aktuelles Wetter: Friesoythe-Altenoythe (6m)

6-stündlich | Neueste Meldungen
Ortszeit Temperatur Wetter
Sa, 15.06. 14:00 16.4° C bewölkt
Sa, 15.06. 8:00 13.9° C leichter Regen
Sa, 15.06. 2:00 14.8° C bedeckt
Fr, 14.06. 20:00 18.2° C bewölkt
Fr, 14.06. 14:00 17.8° C bedeckt
Fr, 14.06. 8:00 14.0° C wolkig
Fr, 14.06. 2:00 13.3° C wolkig
Do, 13.06. 20:00 16.2° C bedeckt
Ortszeit Temperatur Wetter
Sa, 15.06. 16:30 16.9° C bewölkt
Sa, 15.06. 16:20 16.9° C bewölkt
Sa, 15.06. 16:10 17.1° C bewölkt
Sa, 15.06. 16:00 16.7° C bewölkt
Sa, 15.06. 15:50 16.7° C bewölkt
Sa, 15.06. 15:40 16.7° C bewölkt
Sa, 15.06. 15:30 15.7° C wolkig
Sa, 15.06. 15:00 15.9° C wolkig
Sa, 15.06. 14:30 13.9° C bedeckt
Sa, 15.06. 14:00 16.4° C bewölkt
Sa, 15.06. 13:30 15.5° C bewölkt
Ortszeit Relative Feuchte Sichtweite
Sa, 15.06. 14:00 66% 50 km
Sa, 15.06. 8:00 94% 23 km
Sa, 15.06. 2:00 86% 45 km
Fr, 14.06. 20:00 68% 55 km
Fr, 14.06. 14:00 62% 60 km
Fr, 14.06. 8:00 67% 45 km
Fr, 14.06. 2:00 72% 45 km
Do, 13.06. 20:00 63% 40 km
Ortszeit Relative Feuchte Sichtweite
Sa, 15.06. 16:30 59% 60 km
Sa, 15.06. 16:20 59% -
Sa, 15.06. 16:10 61% -
Sa, 15.06. 16:00 62% 50 km
Sa, 15.06. 15:50 62% -
Sa, 15.06. 15:40 64% -
Sa, 15.06. 15:30 68% 50 km
Sa, 15.06. 15:00 71% 55 km
Sa, 15.06. 14:30 75% 50 km
Sa, 15.06. 14:00 66% 50 km
Sa, 15.06. 13:30 75% 65 km
Ortszeit Niederschlagsmenge Niederschlagsart
Sa, 15.06. 14:00 4 l/m2 in 6 Std. Regen
Sa, 15.06. 8:00 4 l/m2 in 12 Std. Regen
Sa, 15.06. 2:00 2 l/m2 in 6 Std. Regen
Fr, 14.06. 20:00 0.1 l/m2 in 12 Std. Regen
Fr, 14.06. 14:00 0.1 l/m2 in 6 Std. Regen
Fr, 14.06. 8:00 0.0 l/m2 in 12 Std. -
Fr, 14.06. 2:00 0.0 l/m2 in 6 Std. -
Do, 13.06. 20:00 0.1 l/m2 in 12 Std. -
Ortszeit Niederschlagsmenge Niederschlagsart
Sa, 15.06. 16:30 0.0 l/m2 in 30 Min -
Sa, 15.06. 16:20 keine Meldung -
Sa, 15.06. 16:10 keine Meldung -
Sa, 15.06. 16:00 <0.05 l/m2 in 1 Std. Regen
Sa, 15.06. 15:50 keine Meldung -
Sa, 15.06. 15:40 keine Meldung -
Sa, 15.06. 15:30 <0.05 l/m2 in 30 Min Schneeregen
Sa, 15.06. 15:00 0.3 l/m2 in 1 Std. Regen
Sa, 15.06. 14:30 0.3 l/m2 in 30 Min Schneeregen
Sa, 15.06. 14:00 <0.05 l/m2 in 1 Std. Regen
Sa, 15.06. 13:30 <0.05 l/m2 in 30 Min Schneeregen
Ortszeit Stärke Spitze Richtung
km/h Bft. km/h Grad Sektor
Sa, 15.06. 14:00 33 5 61 230° SW
Sa, 15.06. 8:00 11 2 32 190° S
Sa, 15.06. 2:00 15 3 39 130° SO
Fr, 14.06. 20:00 17 3 33 160° S
Fr, 14.06. 14:00 20 4 43 180° S
Fr, 14.06. 8:00 18 3 32 170° S
Fr, 14.06. 2:00 13 3 20 140° SO
Do, 13.06. 20:00 11 2 25 150° SO
Ortszeit Stärke Spitze Richtung
km/h Bft. km/h Grad Sektor
Sa, 15.06. 16:30 32 5 50 230° SW
Sa, 15.06. 16:20 32 5 - 230° SW
Sa, 15.06. 16:10 32 5 - 220° SW
Sa, 15.06. 16:00 32 5 47 230° SW
Sa, 15.06. 15:50 32 5 - 230° SW
Sa, 15.06. 15:40 30 5 - 230° SW
Sa, 15.06. 15:30 30 5 48 240° SW
Sa, 15.06. 15:00 26 4 48 230° SW
Sa, 15.06. 14:30 29 5 50 220° SW
Sa, 15.06. 14:00 33 5 54 230° SW
Sa, 15.06. 13:30 31 5 52 230° SW
Ortszeit Untergrenze Bedeckung Gattung
total tief tief mittel hoch
Sa, 15.06. 14:00 960 m 7/8 7/8 - - -
Sa, 15.06. 8:00 480 m 8/8 7/8 - - -
Sa, 15.06. 2:00 2100 m 8/8 8/8 - - -
Fr, 14.06. 20:00 1080 m 7/8 7/8 - - -
Fr, 14.06. 14:00 1260 m 8/8 8/8 - - -
Fr, 14.06. 8:00 1800 m 8/8 3/8 - - -
Fr, 14.06. 2:00 1800 m 8/8 2/8 - - -
Do, 13.06. 20:00 5700 m 8/8 8/8 - - -
Ortszeit Bedeckungsgrad in Achtel und Wolkenuntergrenze
Sa, 15.06. 16:30 2(1290m) 5(1800m) 7(2400m)
Sa, 15.06. 16:20 2(1290m) 5(1800m) 7(2400m)
Sa, 15.06. 16:10 7
Sa, 15.06. 16:00 7(2100m)
Sa, 15.06. 15:50 7(2100m)
Sa, 15.06. 15:40 7
Sa, 15.06. 15:30 2(1140m) 5(1440m) 6(1800m)
Sa, 15.06. 15:00 1(1290m) 5(1800m) 6(2100m)
Sa, 15.06. 14:30 2(1020m) 6(1500m) 8(1800m)
Sa, 15.06. 14:00 4(960m) 6(1800m) 7(2100m)
Sa, 15.06. 13:30 1(750m) 7(2100m) 7(2700m)
Ortszeit Luftdruck NN (hPa) Tendenz (hPa in 3 Std.)
Sa, 15.06. 14:00 1003 + 2,1
Sa, 15.06. 8:00 999 - 0,1
Sa, 15.06. 2:00 1002 - 2,4
Fr, 14.06. 20:00 1006 - 1,2
Fr, 14.06. 14:00 1007 - 0,6
Fr, 14.06. 8:00 1008 - 0,8
Fr, 14.06. 2:00 1011 - 1,9
Do, 13.06. 20:00 1014 - 1,8
Ortszeit Luftdruck NN (hPa) Tendenz (hPa in 3 Std.)
Sa, 15.06. 16:30 1004 + 1,7
Sa, 15.06. 16:20 1004 keine Meldung
Sa, 15.06. 16:10 1004 keine Meldung
Sa, 15.06. 16:00 1004 + 1,6
Sa, 15.06. 15:50 1004 keine Meldung
Sa, 15.06. 15:40 1004 keine Meldung
Sa, 15.06. 15:30 1004 + 1,7
Sa, 15.06. 15:00 1004 + 2,0
Sa, 15.06. 14:30 1003 + 2,5
Sa, 15.06. 14:00 1003 + 2,1
Sa, 15.06. 13:30 1003 + 2,6
Ortszeit Schneehöhe (cm)
Sa, 15.06. 14:00 0
Sa, 15.06. 8:00 0
Sa, 15.06. 2:00 0
Fr, 14.06. 20:00 0
Fr, 14.06. 14:00 0
Fr, 14.06. 8:00 0
Fr, 14.06. 2:00 0
Do, 13.06. 20:00 0
Ortszeit Schneehöhe (cm)
Sa, 15.06. 16:30 0
Sa, 15.06. 16:20 0
Sa, 15.06. 16:10 -
Sa, 15.06. 16:00 0
Sa, 15.06. 15:50 0
Sa, 15.06. 15:40 -
Sa, 15.06. 15:30 0
Sa, 15.06. 15:00 0
Sa, 15.06. 14:30 0
Sa, 15.06. 14:00 0
Sa, 15.06. 13:30 0
Link zu dieser Seite / Seite empfehlen

Das Wetter in ...